createdAt,value
2019-04-30T00:00:00.526Z,31.90
2019-04-30T00:02:45.618Z,28.73
2019-04-30T00:05:20.626Z,29.47
2019-04-30T00:07:58.438Z,30.13
2019-04-30T00:10:36.905Z,29.83
2019-04-30T00:13:03.585Z,29.83
2019-04-30T00:15:35.686Z,30.57
2019-04-30T00:18:06.688Z,31.60
2019-04-30T00:20:45.304Z,34.57
2019-04-30T00:23:18.114Z,31.93
2019-04-30T00:25:49.049Z,32.27
2019-04-30T00:28:20.914Z,36.67
2019-04-30T00:30:51.751Z,33.47
2019-04-30T00:33:25.164Z,34.90
2019-04-30T00:35:58.001Z,33.67
2019-04-30T00:38:36.025Z,32.60
2019-04-30T00:41:06.969Z,34.93
2019-04-30T00:43:37.665Z,33.70
2019-04-30T00:46:09.682Z,33.40
2019-04-30T00:48:40.294Z,33.70
2019-04-30T00:51:18.134Z,33.20
2019-04-30T00:53:51.377Z,34.03
2019-04-30T00:56:24.620Z,36.30
2019-04-30T00:58:57.792Z,37.27
2019-04-30T01:01:48.215Z,35.90
2019-04-30T01:04:34.969Z,35.40
2019-04-30T01:07:08.726Z,37.47
2019-04-30T01:09:43.588Z,38.13
2019-04-30T01:12:35.924Z,38.07
2019-04-30T01:15:06.734Z,37.03
2019-04-30T01:17:34.713Z,37.63
2019-04-30T01:20:05.792Z,35.53
2019-04-30T01:22:38.849Z,35.33
2019-04-30T01:25:13.410Z,36.50
2019-04-30T01:27:45.851Z,37.10
2019-04-30T01:30:18.719Z,34.43
2019-04-30T01:32:56.475Z,36.57
2019-04-30T01:35:23.879Z,38.40
2019-04-30T01:37:54.464Z,37.30
2019-04-30T01:40:25.125Z,37.90
2019-04-30T01:42:56.103Z,40.03
2019-04-30T01:45:30.110Z,37.37
2019-04-30T01:48:08.447Z,39.63
2019-04-30T01:50:33.792Z,39.50
2019-04-30T01:53:04.753Z,34.80
2019-04-30T01:55:47.011Z,39.40
2019-04-30T01:58:34.334Z,36.77
2019-04-30T02:01:06.702Z,35.37
2019-04-30T02:03:37.347Z,36.30
2019-04-30T02:06:11.423Z,34.27
2019-04-30T02:08:43.498Z,38.33
2019-04-30T02:11:14.178Z,37.77
2019-04-30T02:13:46.896Z,37.07
2019-04-30T02:16:21.147Z,34.00
2019-04-30T02:18:53.954Z,40.60
2019-04-30T02:21:25.742Z,41.77
2019-04-30T02:23:56.704Z,34.60
2019-04-30T02:26:35.693Z,41.87
2019-04-30T02:29:06.511Z,35.80
2019-04-30T02:31:40.570Z,37.50
2019-04-30T02:34:11.506Z,34.70
2019-04-30T02:36:43.789Z,36.47
2019-04-30T02:39:14.415Z,39.30
2019-04-30T02:41:45.379Z,35.60
2019-04-30T02:44:16.555Z,35.33
2019-04-30T02:46:50.324Z,31.63
2019-04-30T02:49:21.663Z,36.47
2019-04-30T02:51:52.540Z,41.90
2019-04-30T02:54:29.632Z,38.63
2019-04-30T02:57:02.092Z,36.97
2019-04-30T02:59:32.701Z,38.03
2019-04-30T03:02:03.439Z,34.53
2019-04-30T03:04:34.055Z,36.60
2019-04-30T03:07:04.930Z,35.80
2019-04-30T03:09:39.384Z,34.97
2019-04-30T03:12:10.137Z,36.50
2019-04-30T03:14:40.725Z,38.17
2019-04-30T03:17:23.471Z,38.50
2019-04-30T03:20:03.680Z,36.37
2019-04-30T03:22:34.445Z,35.77
2019-04-30T03:25:05.408Z,39.63
2019-04-30T03:27:36.057Z,36.83
2019-04-30T03:30:11.650Z,38.63
2019-04-30T03:32:42.897Z,38.23
2019-04-30T03:35:13.156Z,36.00
2019-04-30T03:37:54.016Z,32.63
2019-04-30T03:40:24.679Z,33.83
2019-04-30T03:42:55.396Z,37.23
2019-04-30T03:45:30.276Z,36.33
2019-04-30T03:48:01.991Z,33.50
2019-04-30T03:50:48.742Z,37.70
2019-04-30T03:53:05.435Z,36.77
2019-04-30T03:55:40.050Z,33.77
2019-04-30T03:58:11.478Z,38.23
2019-04-30T04:00:47.124Z,36.77
2019-04-30T04:03:22.901Z,41.03
2019-04-30T04:06:21.264Z,38.57
2019-04-30T04:08:55.631Z,43.97
2019-04-30T04:11:29.783Z,39.90
2019-04-30T04:14:00.205Z,39.70
2019-04-30T04:16:32.748Z,41.63
2019-04-30T04:19:09.666Z,42.00
2019-04-30T04:21:40.591Z,43.40
2019-04-30T04:24:11.382Z,43.23
2019-04-30T04:26:43.952Z,42.40
2019-04-30T04:29:14.487Z,44.63
2019-04-30T04:31:56.064Z,40.50
2019-04-30T04:34:26.663Z,43.97
2019-04-30T04:36:59.863Z,41.40
2019-04-30T04:39:29.816Z,45.47
2019-04-30T04:42:00.529Z,42.70
2019-04-30T04:44:31.168Z,44.00
2019-04-30T04:47:01.797Z,48.40
2019-04-30T04:49:32.466Z,42.93
2019-04-30T04:52:03.113Z,42.10
2019-04-30T04:54:33.816Z,40.30
2019-04-30T04:57:14.831Z,45.47
2019-04-30T04:59:42.528Z,43.43
2019-04-30T05:02:32.159Z,42.83
2019-04-30T05:05:02.341Z,42.70
2019-04-30T05:07:32.985Z,41.63
2019-04-30T05:10:03.681Z,42.10
2019-04-30T05:12:34.293Z,42.27
2019-04-30T05:15:05.223Z,37.97
2019-04-30T05:17:50.012Z,41.40
2019-04-30T05:20:20.697Z,40.33
2019-04-30T05:22:52.335Z,42.30
2019-04-30T05:25:29.577Z,46.00
2019-04-30T05:28:00.461Z,42.57
2019-04-30T05:30:35.953Z,41.20
2019-04-30T05:33:23.030Z,40.17
2019-04-30T05:35:53.859Z,44.43
2019-04-30T05:38:24.466Z,44.83
2019-04-30T05:40:55.131Z,42.87
2019-04-30T05:43:25.835Z,46.10
2019-04-30T05:45:58.541Z,41.57
2019-04-30T05:48:29.738Z,42.27
2019-04-30T05:51:04.625Z,43.23
2019-04-30T05:53:35.241Z,41.63
2019-04-30T05:56:11.053Z,45.83
2019-04-30T05:58:41.849Z,43.07
2019-04-30T06:01:12.574Z,42.43
2019-04-30T06:03:43.169Z,44.70
2019-04-30T06:06:13.934Z,46.87
2019-04-30T06:09:06.238Z,43.50
2019-04-30T06:11:53.915Z,41.03
2019-04-30T06:14:48.872Z,43.67
2019-04-30T06:17:19.840Z,45.03
2019-04-30T06:19:51.416Z,43.93
2019-04-30T06:22:22.556Z,38.30
2019-04-30T06:24:53.165Z,43.60
2019-04-30T06:27:23.932Z,41.97
2019-04-30T06:29:54.531Z,41.97
2019-04-30T06:32:25.354Z,40.27
2019-04-30T06:34:56.576Z,39.00
2019-04-30T06:37:28.784Z,40.83
2019-04-30T06:39:59.813Z,37.63
2019-04-30T06:42:31.520Z,42.03
2019-04-30T06:45:02.482Z,37.77
2019-04-30T06:47:34.474Z,35.47
2019-04-30T06:50:05.770Z,37.50
2019-04-30T06:52:36.485Z,35.93
2019-04-30T06:55:07.180Z,37.60
2019-04-30T06:57:38.401Z,35.10
2019-04-30T07:00:12.199Z,36.20
2019-04-30T07:02:43.890Z,32.00
2019-04-30T07:05:18.689Z,30.43
2019-04-30T07:08:09.003Z,32.20
2019-04-30T07:10:36.175Z,33.83
2019-04-30T07:13:14.711Z,34.87
2019-04-30T07:15:45.334Z,32.27
2019-04-30T07:18:16.090Z,37.33
2019-04-30T07:20:48.502Z,40.27
2019-04-30T07:23:19.385Z,34.77
2019-04-30T07:25:51.714Z,35.10
2019-04-30T07:28:43.776Z,35.50
2019-04-30T07:31:11.721Z,37.80
2019-04-30T07:33:34.871Z,38.47
2019-04-30T07:36:05.546Z,36.37
2019-04-30T07:38:43.178Z,37.23
2019-04-30T07:41:09.538Z,35.93
2019-04-30T07:43:40.307Z,42.00
2019-04-30T07:46:11.021Z,42.23
2019-04-30T07:48:41.803Z,41.23
2019-04-30T07:51:13.055Z,45.60
2019-04-30T07:53:43.950Z,39.67
2019-04-30T07:56:25.721Z,40.03
2019-04-30T07:58:46.879Z,40.60
2019-04-30T08:01:19.558Z,40.27
2019-04-30T08:03:52.166Z,41.70
2019-04-30T08:06:24.827Z,40.57
2019-04-30T08:08:58.327Z,45.10
2019-04-30T08:11:29.369Z,41.93
2019-04-30T08:14:00.344Z,42.03
2019-04-30T08:16:31.068Z,40.07
2019-04-30T08:19:01.684Z,44.13
2019-04-30T08:21:32.365Z,37.73
2019-04-30T08:24:05.066Z,41.03
2019-04-30T08:26:36.124Z,36.87
2019-04-30T08:29:06.838Z,42.87
2019-04-30T08:31:41.511Z,41.77
2019-04-30T08:34:12.214Z,40.30
2019-04-30T08:36:42.783Z,42.97
2019-04-30T08:39:13.378Z,37.93
2019-04-30T08:41:44.057Z,36.87
2019-04-30T08:44:14.720Z,43.37
2019-04-30T08:46:45.314Z,37.73
2019-04-30T08:49:16.063Z,41.03
2019-04-30T08:51:48.757Z,40.43
2019-04-30T08:54:19.874Z,40.73
2019-04-30T08:56:50.946Z,44.57
2019-04-30T08:59:21.650Z,41.40
2019-04-30T09:01:52.316Z,33.60
2019-04-30T09:04:25.621Z,40.67
2019-04-30T09:06:56.307Z,40.10
2019-04-30T09:09:26.906Z,35.97
2019-04-30T09:11:59.166Z,34.60
2019-04-30T09:14:30.161Z,37.20
2019-04-30T09:17:00.999Z,41.00
2019-04-30T09:19:31.671Z,37.07
2019-04-30T09:22:02.254Z,38.30
2019-04-30T09:24:32.936Z,33.23
2019-04-30T09:27:03.523Z,36.47
2019-04-30T09:29:34.216Z,31.20
2019-04-30T09:32:04.881Z,34.33
2019-04-30T09:34:35.476Z,34.77
2019-04-30T09:37:06.128Z,36.20
2019-04-30T09:39:36.713Z,34.73
2019-04-30T09:42:09.148Z,33.07
2019-04-30T09:44:39.921Z,34.37
2019-04-30T09:47:11.574Z,31.40
2019-04-30T09:49:42.254Z,33.87
2019-04-30T09:52:12.829Z,29.97
2019-04-30T09:54:43.537Z,32.80
2019-04-30T09:57:15.099Z,31.10
2019-04-30T09:59:45.694Z,32.87
2019-04-30T10:02:16.366Z,33.20
2019-04-30T10:04:47.750Z,32.57
2019-04-30T10:07:19.522Z,31.70
2019-04-30T10:09:50.950Z,31.93
2019-04-30T10:12:22.029Z,30.03
2019-04-30T10:14:52.740Z,34.90
2019-04-30T10:17:39.975Z,32.27
2019-04-30T10:20:12.724Z,31.80
2019-04-30T10:22:43.318Z,30.40
2019-04-30T10:25:14.212Z,28.90
2019-04-30T10:27:44.893Z,32.40
2019-04-30T10:30:16.238Z,28.50
2019-04-30T10:32:49.935Z,27.83
2019-04-30T10:35:23.922Z,30.63
2019-04-30T10:37:55.519Z,27.00
2019-04-30T10:40:28.706Z,32.20
2019-04-30T10:42:59.564Z,30.77
2019-04-30T10:45:30.531Z,29.00
2019-04-30T10:48:01.139Z,28.60
2019-04-30T10:50:33.830Z,27.30
2019-04-30T10:53:04.480Z,29.63
2019-04-30T10:55:35.164Z,34.93
2019-04-30T10:58:05.739Z,35.67
2019-04-30T11:00:38.973Z,38.00
2019-04-30T11:03:19.605Z,32.63
2019-04-30T11:05:43.186Z,38.27
2019-04-30T11:08:13.986Z,35.40
2019-04-30T11:10:48.866Z,40.23
2019-04-30T11:13:19.552Z,38.23
2019-04-30T11:15:50.313Z,36.77
2019-04-30T11:18:21.345Z,38.77
2019-04-30T11:20:52.347Z,39.27
2019-04-30T11:23:23.245Z,37.27
2019-04-30T11:25:54.981Z,39.43
2019-04-30T11:28:27.569Z,36.93
2019-04-30T11:31:26.416Z,36.70
2019-04-30T11:33:58.711Z,36.57
2019-04-30T11:36:38.890Z,39.17
2019-04-30T11:39:11.716Z,41.40
2019-04-30T11:41:42.409Z,41.73
2019-04-30T11:44:13.103Z,37.93
2019-04-30T11:47:29.906Z,38.50
2019-04-30T11:50:00.575Z,42.43
2019-04-30T11:52:31.252Z,34.67
2019-04-30T11:55:02.944Z,37.27
2019-04-30T11:57:33.715Z,33.97
2019-04-30T12:00:08.517Z,36.97
2019-04-30T12:02:40.795Z,35.10
2019-04-30T12:05:13.787Z,36.27
2019-04-30T12:07:46.192Z,37.37
2019-04-30T12:10:29.270Z,40.10
2019-04-30T12:12:59.671Z,35.57
2019-04-30T12:15:30.418Z,34.73
2019-04-30T12:18:01.114Z,34.17
2019-04-30T12:20:39.959Z,32.73
2019-04-30T12:23:11.933Z,35.87
2019-04-30T12:25:42.536Z,36.67
2019-04-30T12:28:13.308Z,35.33
2019-04-30T12:30:44.113Z,34.10
2019-04-30T12:33:14.786Z,39.50
2019-04-30T12:35:45.754Z,32.00
2019-04-30T12:38:16.445Z,29.27
2019-04-30T12:40:47.125Z,31.87
2019-04-30T12:43:18.782Z,28.93
2019-04-30T12:46:02.044Z,32.27
2019-04-30T12:48:44.559Z,34.20
2019-04-30T12:51:19.733Z,31.00
2019-04-30T12:53:57.584Z,31.80
2019-04-30T12:56:47.817Z,30.33
2019-04-30T12:59:22.660Z,32.83
2019-04-30T13:01:53.261Z,33.90
2019-04-30T13:04:23.921Z,30.20
2019-04-30T13:06:54.973Z,32.17
2019-04-30T13:09:26.613Z,29.03
2019-04-30T13:12:00.594Z,36.80
2019-04-30T13:14:32.239Z,30.97
2019-04-30T13:17:03.608Z,31.63
2019-04-30T13:19:35.388Z,29.20
2019-04-30T13:22:06.071Z,32.87
2019-04-30T13:24:36.925Z,31.90
2019-04-30T13:27:09.375Z,29.67
2019-04-30T13:29:58.234Z,31.83
2019-04-30T13:32:32.935Z,31.70
2019-04-30T13:35:03.886Z,33.20
2019-04-30T13:37:57.078Z,29.63
2019-04-30T13:40:33.356Z,32.17
2019-04-30T13:43:05.901Z,31.87
2019-04-30T13:45:36.586Z,32.60
2019-04-30T13:48:08.966Z,33.63
2019-04-30T13:50:41.784Z,28.83
2019-04-30T13:53:12.399Z,30.63
2019-04-30T13:55:48.854Z,31.00
2019-04-30T13:58:19.377Z,27.57
2019-04-30T14:00:50.024Z,33.40
2019-04-30T14:03:23.291Z,32.60
2019-04-30T14:05:54.103Z,35.80
2019-04-30T14:08:29.101Z,32.73
2019-04-30T14:10:59.905Z,35.53
2019-04-30T14:13:30.620Z,34.93
2019-04-30T14:16:03.446Z,30.87
2019-04-30T14:18:48.832Z,32.40
2019-04-30T14:21:32.243Z,32.50
2019-04-30T14:23:52.691Z,33.67
2019-04-30T14:26:40.912Z,30.67
2019-04-30T14:29:17.217Z,31.10
2019-04-30T14:31:52.070Z,34.10
2019-04-30T14:34:22.795Z,37.13
2019-04-30T14:36:53.418Z,34.83
2019-04-30T14:39:26.118Z,38.80
2019-04-30T14:42:00.075Z,36.70
2019-04-30T14:44:34.626Z,37.90
2019-04-30T14:47:11.574Z,32.07
2019-04-30T14:49:59.647Z,35.10
2019-04-30T14:52:24.794Z,32.47
2019-04-30T14:55:13.500Z,33.37
2019-04-30T14:57:45.913Z,37.60
2019-04-30T15:00:31.966Z,34.17
2019-04-30T15:03:16.709Z,34.70
2019-04-30T15:05:52.569Z,32.57
2019-04-30T15:08:25.451Z,35.37
2019-04-30T15:10:56.185Z,39.07
2019-04-30T15:13:29.518Z,34.90
2019-04-30T15:16:00.355Z,37.27
2019-04-30T15:18:32.080Z,37.77
2019-04-30T15:21:02.849Z,37.70
2019-04-30T15:23:56.375Z,39.97
2019-04-30T15:26:41.629Z,39.47
2019-04-30T15:29:16.325Z,36.57
2019-04-30T15:31:48.183Z,37.73
2019-04-30T15:34:19.388Z,42.53
2019-04-30T15:36:50.474Z,37.03
2019-04-30T15:39:26.163Z,36.80
2019-04-30T15:42:09.669Z,35.93
2019-04-30T15:44:45.347Z,35.27
2019-04-30T15:47:19.715Z,36.13
2019-04-30T15:49:50.657Z,31.80
2019-04-30T15:52:35.901Z,34.10
2019-04-30T15:55:06.765Z,36.20
2019-04-30T15:57:45.249Z,32.40
2019-04-30T16:00:18.727Z,37.43
2019-04-30T16:03:04.631Z,39.63
2019-04-30T16:05:40.409Z,39.97
2019-04-30T16:08:15.679Z,36.77
2019-04-30T16:10:51.090Z,34.53
2019-04-30T16:13:46.395Z,37.13
2019-04-30T16:16:19.212Z,36.20
2019-04-30T16:18:50.503Z,36.57
2019-04-30T16:21:22.424Z,37.43
2019-04-30T16:24:12.956Z,36.03
2019-04-30T16:26:49.494Z,39.13
2019-04-30T16:29:16.612Z,37.80
2019-04-30T16:31:49.415Z,34.47
2019-04-30T16:34:24.887Z,36.40
2019-04-30T16:36:56.700Z,33.73
2019-04-30T16:39:29.795Z,36.47
2019-04-30T16:42:00.821Z,39.27
2019-04-30T16:44:38.541Z,35.37
2019-04-30T16:47:14.470Z,36.90
2019-04-30T16:49:45.211Z,33.57
2019-04-30T16:52:18.910Z,34.30
2019-04-30T16:54:52.819Z,34.17
2019-04-30T16:57:30.301Z,32.10
2019-04-30T17:00:00.780Z,32.20
2019-04-30T17:02:32.352Z,35.57
2019-04-30T17:05:08.539Z,32.80
2019-04-30T17:07:43.637Z,34.57
2019-04-30T17:10:16.148Z,36.40
2019-04-30T17:13:01.907Z,36.23
2019-04-30T17:15:43.302Z,33.23
2019-04-30T17:18:13.966Z,33.80
2019-04-30T17:20:48.584Z,36.90
2019-04-30T17:23:19.486Z,34.30
2019-04-30T17:25:51.358Z,35.17
2019-04-30T17:28:22.088Z,39.23
2019-04-30T17:30:59.000Z,38.43
2019-04-30T17:33:29.795Z,36.13
2019-04-30T17:36:00.487Z,33.13
2019-04-30T17:38:34.794Z,32.03
2019-04-30T17:41:07.749Z,33.07
2019-04-30T17:43:41.633Z,36.80
2019-04-30T17:46:15.468Z,32.97
2019-04-30T17:48:46.341Z,35.30
2019-04-30T17:51:18.121Z,33.57
2019-04-30T17:54:06.663Z,33.63
2019-04-30T17:56:38.787Z,32.50
2019-04-30T17:59:09.999Z,33.83
2019-04-30T18:01:42.461Z,33.63
2019-04-30T18:04:14.175Z,35.07
2019-04-30T18:06:45.735Z,31.10
2019-04-30T18:09:19.078Z,34.20
2019-04-30T18:11:50.091Z,31.87
2019-04-30T18:14:20.947Z,35.53
2019-04-30T18:16:51.621Z,31.47
2019-04-30T18:19:46.003Z,32.13
2019-04-30T18:22:30.495Z,35.00
2019-04-30T18:25:05.730Z,33.17
2019-04-30T18:27:46.198Z,30.27
2019-04-30T18:30:19.034Z,32.83
2019-04-30T18:33:02.244Z,31.97
2019-04-30T18:35:32.979Z,29.53
2019-04-30T18:38:03.658Z,33.63
2019-04-30T18:40:35.445Z,32.70
2019-04-30T18:43:18.911Z,31.53
2019-04-30T18:45:53.235Z,30.17
2019-04-30T18:48:31.106Z,31.63
2019-04-30T18:51:15.969Z,34.60
2019-04-30T18:53:35.914Z,31.47
2019-04-30T18:56:12.162Z,31.13
2019-04-30T18:58:42.911Z,32.07
2019-04-30T19:01:14.150Z,28.57
2019-04-30T19:03:45.900Z,31.53
2019-04-30T19:06:26.267Z,31.73
2019-04-30T19:09:16.858Z,35.87
2019-04-30T19:12:11.246Z,30.83
2019-04-30T19:15:02.183Z,32.27
2019-04-30T19:17:52.526Z,32.63
2019-04-30T19:20:33.812Z,33.50
2019-04-30T19:23:06.154Z,32.67
2019-04-30T19:25:38.626Z,28.90
2019-04-30T19:28:14.331Z,30.70
2019-04-30T19:30:57.649Z,30.53
2019-04-30T19:33:29.230Z,31.13
2019-04-30T19:36:00.572Z,30.23
2019-04-30T19:38:31.460Z,30.80
2019-04-30T19:41:02.250Z,31.73
2019-04-30T19:43:33.063Z,28.17
2019-04-30T19:46:09.046Z,30.20
2019-04-30T19:48:41.955Z,33.90
2019-04-30T19:51:14.417Z,30.77
2019-04-30T19:53:51.831Z,31.93
2019-04-30T19:56:23.209Z,32.93
2019-04-30T19:59:02.073Z,30.23
2019-04-30T20:01:28.691Z,29.13
2019-04-30T20:04:00.830Z,31.70
2019-04-30T20:06:31.931Z,30.33
2019-04-30T20:09:03.331Z,31.60
2019-04-30T20:11:42.541Z,29.40
2019-04-30T20:14:18.658Z,31.27
2019-04-30T20:16:51.755Z,32.57
2019-04-30T20:19:23.064Z,34.73
2019-04-30T20:22:05.675Z,31.63
2019-04-30T20:24:42.194Z,29.33
2019-04-30T20:27:21.998Z,32.53
2019-04-30T20:29:55.978Z,31.90
2019-04-30T20:32:36.629Z,27.90
2019-04-30T20:35:07.146Z,27.90
2019-04-30T20:38:00.034Z,29.87
2019-04-30T20:40:43.346Z,31.27
2019-04-30T20:43:08.459Z,29.23
2019-04-30T20:45:39.042Z,30.90
2019-04-30T20:48:10.795Z,31.00
2019-04-30T20:50:50.713Z,28.23
2019-04-30T20:53:21.635Z,32.07
2019-04-30T20:55:54.726Z,32.30
2019-04-30T20:58:25.360Z,31.47
2019-04-30T21:01:04.095Z,28.70
2019-04-30T21:03:29.592Z,31.63
2019-04-30T21:06:11.227Z,29.47
2019-04-30T21:08:47.691Z,31.53
2019-04-30T21:11:30.399Z,31.27
2019-04-30T21:14:08.956Z,35.80
2019-04-30T21:16:46.505Z,30.20
2019-04-30T21:19:17.651Z,32.87
2019-04-30T21:22:00.734Z,33.67
2019-04-30T21:24:32.851Z,32.23
2019-04-30T21:27:04.028Z,32.67
2019-04-30T21:29:35.146Z,33.13
2019-04-30T21:32:07.912Z,31.33
2019-04-30T21:34:44.297Z,30.90
2019-04-30T21:37:37.338Z,32.43
2019-04-30T21:40:09.714Z,33.50
2019-04-30T21:42:52.563Z,34.67
2019-04-30T21:45:25.114Z,32.27
2019-04-30T21:48:19.154Z,35.47
2019-04-30T21:51:11.372Z,32.90
2019-04-30T21:53:46.789Z,34.43
2019-04-30T21:56:19.376Z,34.23
2019-04-30T21:59:01.603Z,32.40
2019-04-30T22:01:32.642Z,35.10
2019-04-30T22:04:14.700Z,35.97
2019-04-30T22:07:00.699Z,33.37
2019-04-30T22:09:43.489Z,31.00
2019-04-30T22:12:23.656Z,35.40
2019-04-30T22:14:55.551Z,30.83
2019-04-30T22:17:26.300Z,35.20
2019-04-30T22:19:59.699Z,33.80
2019-04-30T22:22:30.449Z,35.70
2019-04-30T22:25:01.606Z,34.27
2019-04-30T22:27:33.591Z,36.70
2019-04-30T22:30:04.929Z,38.03
2019-04-30T22:32:51.931Z,35.23
2019-04-30T22:35:44.833Z,36.40
2019-04-30T22:38:29.083Z,35.27
2019-04-30T22:41:06.368Z,35.80
2019-04-30T22:43:38.462Z,37.47
2019-04-30T22:46:14.320Z,35.47
2019-04-30T22:48:47.059Z,33.30
2019-04-30T22:51:18.834Z,35.47
2019-04-30T22:53:51.651Z,36.80
2019-04-30T22:56:25.568Z,38.20
2019-04-30T22:58:56.629Z,35.47
2019-04-30T23:01:34.982Z,35.83
2019-04-30T23:04:14.376Z,37.80
2019-04-30T23:06:45.096Z,36.53
2019-04-30T23:09:16.409Z,36.13
2019-04-30T23:11:47.175Z,37.07
2019-04-30T23:14:17.837Z,37.40
2019-04-30T23:16:56.384Z,35.50
2019-04-30T23:19:31.049Z,37.13
2019-04-30T23:22:07.023Z,37.53
2019-04-30T23:24:37.721Z,39.43
2019-04-30T23:27:13.115Z,37.70
2019-04-30T23:29:43.711Z,37.87
2019-04-30T23:32:17.887Z,40.53
2019-04-30T23:34:51.621Z,38.40
2019-04-30T23:37:24.343Z,37.87
2019-04-30T23:40:23.745Z,39.17
2019-04-30T23:42:55.407Z,37.70
2019-04-30T23:45:27.258Z,38.87
2019-04-30T23:47:57.984Z,37.97
2019-04-30T23:50:28.733Z,39.17
2019-04-30T23:53:10.559Z,42.50
2019-04-30T23:55:41.368Z,41.47
2019-04-30T23:58:12.094Z,39.17
